Mauston, WI

6:25 AM CDT on July 23, 2017 (GMT -0500)
Juneau County Weather | | Change Station
Active Advisory: Special Statement

Elev 873 ft 43.80 °N, 90.07 °W | Updated 7 seconds ago

Clear
Clear
64.8 °F
Feels Like 64.8 °F
N
0.0
Wind Variable Wind from SSW
Gusts 0.0 mph

Today
High -- | Low -- °F
--% Chance of Precip.
Yesterday
High -- | Low -- °F
Precip. -- in
Pressure 29.81 in
Visibility 10.0 miles
Clouds Scattered Clouds 7500 ft
Dew Point 64 °F
Humidity 99%
Rainfall 0.00 in
Snow Depth Not available.
5:39 AM 8:33 PM
New Moon, 0% visible
METAR KVOK 231058Z AUTO 26005KT 10SM SCT075 16/16 A2981 RMK AO2 SLP093 T01590159
Pressure 29.81 in
Visibility 10.0 miles
Clouds Scattered Clouds 7500 ft
Dew Point 64 °F
Humidity 99%
Rainfall 0.00 in
Snow Depth Not available.
5:39 AM 8:33 PM
New Moon, 0% visible
METAR KVOK 231058Z AUTO 26005KT 10SM SCT075 16/16 A2981 RMK AO2 SLP093 T01590159

Get Your Daily Forecast Email!

Thanks for signing up!

Be on the lookout for a verification email in your inbox.

You'll start receiving severe weather alerts in your inbox..

×

10-Day Weather Forecast

Almanac

Astronomy

Jul. 23, 2017 Rise Set
Actual Time
Civil Twilight
Nautical Twilight
Astronomical Twilight
Moon
Length of Visible Light
Length of Day
Tomorrow will be .
, % of the Moon is Illuminated

Today's Extremes

State Highs State Lows

Community

WunderPhotos

Category 6

Welcome to Category 6. This is the collective home for Weather Underground's featured writeups by Dr. Jeff Masters (right), Bob Henson (left), Chris Burt, and other regular contributors.

Nearby

Air Quality

  Air Quality AQ Index Pollutant
Not available.

Snow Depth

Station Depth Elevation

Earthquake Activity

City Distance Mag. Time & Date
Minimum magnitude displayed is 2.5.

Coastal Water Temperatures

Place Temperature

Stations

Nearby Weather Stations

Station Location Temp. Windchill Dew Point Humidity Wind Precip. Elev Updated Type
                   

Watches & Warnings

Special Statement
Issued: 2:11 AM CDT Jul. 23, 2017 – National Weather Service

... Areas of dense fog this morning...

Through 9 am, areas of dense fog will be found across parts of
western Wisconsin and southeast Minnesota. This fog will reduce
visibilities to less than a quarter mile in some locations.

If traveling this morning, be alert to the potential for quick
changes in visibility along your Route.


Boyne

211 am CDT sun Jul 23 2017

... Areas of dense fog this morning...

Through 9 am, areas of dense fog will be found across parts of
western Wisconsin and southeast Minnesota. This fog will reduce
visibilities to less than a quarter mile in some locations.

If traveling this morning, be alert to the potential for quick
changes in visibility along your Route.


Boyne